Latest Weather Observations for Cape Leeuwin

IDW60801

Issued at 10:23 am WST Monday 30 November 2020 (issued every 10 minutes, with the page automatically refreshed every 10 minutes)

About weather observations | Map of weather stations | Latest weather observations for WA | Other Formats
Station Details ID: 009518 Name: CAPE LEEUWIN Lat: -34.37 Lon: 115.14 Height: 13.0 m
Data from the previous 72 hours. | See also: Recent months at Cape Leeuwin
Date/Time
WST
Temp
°C
App
Temp
°C
Dew
Point
°C
Rel
Hum
%
Delta-T
°C
Wind Press
QNH
hPa
Press
MSL
hPa
Rain since
9am
mm
Dir  Spd
km/h
Gust
km/h
Spd
kts
Gust
kts
30/10:00am 15.5 5.6 6.5 55 4.4 SW 48 59 26 32 1014.1 1014.1 0.0
30/09:30am 14.7 3.6 6.5 58 4.0 SW 54 65 29 35 1013.6 1013.6 0.0
30/09:09am 14.2 3.2 6.6 60 3.7 SW 54 74 29 40 1013.1 1013.1 0.0
30/09:00am 15.0 3.8 6.0 55 4.3 WSW 54 65 29 35 1013.0 1013.0 6.6
30/08:30am 14.5 3.3 5.8 56 4.1 WSW 54 63 29 34 1012.6 1012.6 6.6
30/08:01am 14.2 2.1 6.1 58 3.9 WSW 59 87 32 47 1012.0 1012.0 6.6
30/08:00am 14.6 2.9 6.4 58 4.0 WSW 57 74 31 40 1012.1 1012.1 6.6
30/07:30am 14.1 3.0 7.9 66 3.1 SW 56 72 30 39 1011.4 1011.4 6.6
30/07:00am 13.6 2.5 8.2 70 2.7 WSW 56 70 30 38 1010.7 1010.7 6.6
30/06:30am 12.8 2.7 8.9 77 2.0 SW 52 76 28 41 1009.9 1009.9 6.4
30/06:12am 12.9 4.1 8.2 73 2.3 SW 44 69 24 37 1009.9 1009.9 6.2
30/06:00am 12.5 2.9 7.8 73 2.3 SW 48 59 26 32 1009.7 1009.7 6.2
30/05:37am 11.7 1.5 8.7 82 1.5 SW 52 70 28 38 1009.5 1009.5 6.2
30/05:30am 11.7 0.2 8.7 82 1.5 SW 59 76 32 41 1009.5 1009.5 6.2
30/05:20am 12.6 2.2 9.4 81 1.6 SW 54 72 29 39 1008.9 1008.8 6.2
30/05:00am 11.6 -0.3 8.5 81 1.5 SW 61 74 33 40 1008.7 1008.6 6.2
30/04:53am 11.5 -1.8 8.9 84 1.3 WSW 69 95 37 51 1008.7 1008.6 6.2
30/04:47am 11.6 -1.4 8.6 82 1.5 WSW 67 95 36 51 1008.4 1008.3 5.4
30/04:44am 12.8 1.1 9.4 80 1.7 WSW 61 89 33 48 1008.1 1008.0 4.6
30/04:42am 13.7 3.1 9.9 78 2.0 WSW 56 82 30 44 1008.0 1007.9 4.4
30/04:30am 13.5 3.0 9.0 74 2.3 WSW 54 69 29 37 1007.8 1007.7 4.4
30/04:23am 13.0 1.5 8.5 74 2.2 WSW 59 78 32 42 1007.8 1007.7 4.4
30/04:00am 13.3 1.4 8.6 73 2.4 WSW 61 76 33 41 1007.2 1007.1 4.4
30/03:43am 14.6 3.8 9.2 70 2.8 WSW 56 78 30 42 1006.8 1006.7 4.4
30/03:30am 14.4 3.1 8.1 66 3.1 WSW 57 69 31 37 1006.7 1006.6 4.4
30/03:00am 14.8 3.8 9.2 69 2.9 WSW 57 69 31 37 1006.5 1006.4 4.4
30/02:30am 14.7 3.6 8.6 67 3.1 WSW 57 72 31 39 1006.0 1005.9 4.4
30/02:00am 14.8 3.3 8.5 66 3.2 WSW 59 74 32 40 1006.0 1005.9 4.4
30/01:30am 14.9 4.3 8.4 65 3.3 W 54 63 29 34 1006.0 1005.9 4.4
30/01:00am 14.5 3.3 8.5 67 3.0 WSW 57 70 31 38 1005.9 1005.8 4.4
30/12:30am 15.4 5.3 11.8 79 1.9 WSW 56 67 30 36 1005.6 1005.5 4.4
30/12:18am 14.7 4.9 11.3 80 1.8 WSW 54 72 29 39 1005.6 1005.5 4.4
30/12:00am 14.6 4.0 11.9 84 1.5 WSW 59 69 32 37 1005.8 1005.7 4.4
 
Date/Time
WST
Temp
°C
App
Temp
°C
Dew
Point
°C
Rel
Hum
%
Delta-T
°C
Wind Press
QNH
hPa
Press
MSL
hPa
Rain since
9am
mm
Dir  Spd
km/h
Gust
km/h
Spd
kts
Gust
kts
29/11:30pm 15.1 6.5 13.0 87 1.2 WSW 50 59 27 32 1005.6 1005.5 4.4
29/11:00pm 14.6 4.8 12.8 89 1.0 WSW 56 65 30 35 1005.8 1005.7 3.8
29/10:49pm 15.0 4.7 13.0 88 1.1 W 59 83 32 45 1005.7 1005.6 3.8
29/10:44pm 15.4 6.7 12.5 83 1.6 W 50 76 27 41 1005.3 1005.2 3.0
29/10:42pm 16.4 8.6 13.1 81 1.8 W 46 67 25 36 1005.5 1005.4 2.8
29/10:30pm 16.6 7.5 12.6 77 2.2 WNW 52 63 28 34 1005.7 1005.6 2.8
29/10:19pm 15.7 6.3 11.5 76 2.3 WNW 52 72 28 39 1005.8 1005.7 2.8
29/10:00pm 17.1 8.3 12.2 73 2.7 WNW 50 59 27 32 1005.9 1005.8 2.4
29/09:30pm 17.1 8.4 12.4 74 2.6 WNW 50 59 27 32 1006.2 1006.1 2.4
29/09:00pm 16.9 8.0 12.0 73 2.7 WNW 50 59 27 32 1006.2 1006.1 2.4
29/08:30pm 16.8 8.1 12.7 77 2.3 WNW 50 59 27 32 1006.3 1006.2 2.4
29/08:00pm 16.2 7.8 13.5 84 1.5 WNW 50 57 27 31 1006.4 1006.3 2.4
29/07:30pm 15.7 7.1 13.0 84 1.5 W 50 63 27 34 1006.7 1006.6 2.0
29/07:00pm 16.2 9.1 13.3 83 1.6 WNW 43 50 23 27 1006.8 1006.7 1.6
29/06:37pm 15.5 7.4 13.3 87 1.2 W 48 67 26 36 1006.9 1006.8 1.6
29/06:30pm 15.6 6.0 13.3 86 1.3 WNW 56 69 30 37 1007.1 1007.0 1.4
29/06:00pm 17.7 9.9 11.9 69 3.2 NW 44 52 24 28 1006.7 1006.6 0.0
29/05:30pm 17.7 10.2 12.2 70 3.0 NW 43 59 23 32 1006.9 1006.8 0.0
29/05:00pm 17.8 11.2 12.5 71 3.0 NW 39 46 21 25 1007.3 1007.2 0.0
29/04:30pm 17.9 11.5 12.1 69 3.2 NW 37 44 20 24 1007.6 1007.5 0.0
29/04:00pm 17.5 11.7 11.5 68 3.3 NW 33 43 18 23 1007.9 1007.8 0.0
29/03:30pm 17.7 13.6 11.5 67 3.4 NW 24 30 13 16 1007.8 1007.7 0.0
29/03:00pm 16.7 13.5 11.8 73 2.7 NW 20 26 11 14 1008.3 1008.2 0.0
29/02:30pm 16.2 12.0 12.4 78 2.1 NW 26 32 14 17 1009.2 1009.2 0.0
29/02:00pm 15.8 11.7 11.4 75 2.4 WNW 24 30 13 16 1009.5 1009.5 0.0
29/01:30pm 15.9 11.1 11.5 75 2.4 WNW 28 32 15 17 1009.9 1009.9 0.0
29/01:00pm 16.2 10.9 11.2 72 2.7 WNW 30 37 16 20 1010.7 1010.7 0.0
29/12:30pm 16.6 10.7 10.5 67 3.2 W 32 39 17 21 1011.0 1011.0 0.0
29/12:00pm 17.0 12.6 10.4 65 3.5 W 24 28 13 15 1010.6 1010.6 0.0
29/11:30am 17.2 12.3 9.9 62 3.8 W 26 30 14 16 1011.5 1011.5 0.0
29/11:00am 17.2 11.8 9.6 61 4.0 W 28 33 15 18 1011.7 1011.7 0.0
29/10:30am 17.3 12.7 9.7 61 4.0 W 24 28 13 15 1011.6 1011.6 0.0
29/10:00am 16.7 14.0 10.3 66 3.4 W 15 20 8 11 1012.0 1012.0 0.0
29/09:30am 16.5 14.2 9.0 61 3.9 W 11 15 6 8 1012.2 1012.2 0.0
29/09:00am 16.5 14.8 8.5 59 4.1 WNW 7 11 4 6 1012.3 1012.3 0.0
29/08:30am 16.1 14.3 8.1 59 4.0 ESE 7 9 4 5 1012.6 1012.6 0.0
29/08:00am 15.6 14.0 8.1 61 3.8 NE 6 9 3 5 1013.1 1013.1 0.0
29/07:30am 15.0 12.9 8.3 64 3.4 NE 9 11 5 6 1013.0 1013.0 0.0
29/07:00am 14.3 11.5 8.5 68 2.9 NE 13 15 7 8 1013.0 1013.0 0.0
29/06:30am 13.7 10.8 8.1 69 2.8 NE 13 17 7 9 1013.4 1013.4 0.0
29/06:00am 13.0 9.2 7.7 70 2.6 NNE 17 20 9 11 1013.9 1013.9 0.0
29/05:30am 13.1 9.8 8.0 71 2.5 NNE 15 20 8 11 1013.3 1013.3 0.0
29/05:00am 12.9 9.6 8.0 72 2.4 NNE 15 19 8 10 1014.0 1014.0 0.0
29/04:30am 12.5 8.7 7.6 72 2.4 NNE 17 20 9 11 1013.5 1013.5 0.0
29/04:00am 12.1 8.2 7.2 72 2.4 NNE 17 20 9 11 1013.5 1013.5 0.0
29/03:30am 12.0 8.5 7.3 73 2.3 NNE 15 17 8 9 1013.6 1013.6 0.0
29/03:00am 12.2 8.8 7.5 73 2.3 NNE 15 17 8 9 1013.9 1013.9 0.0
29/02:30am 12.4 8.7 7.9 74 2.2 NNE 17 20 9 11 1013.8 1013.8 0.0
29/02:00am 12.9 10.4 8.0 72 2.4 NE 11 13 6 7 1014.0 1014.0 0.0
29/01:30am 14.5 12.2 8.9 69 2.8 ESE 11 17 6 9 1014.6 1014.6 0.0
29/01:00am 13.7 11.9 7.9 68 2.9 SE 7 11 4 6 1015.1 1015.1 0.0
29/12:30am 13.7 12.0 7.7 67 3.0 S 6 11 3 6 1016.0 1016.0 0.0
29/12:00am 13.7 11.5 7.9 68 2.9 S 9 13 5 7 1016.3 1016.3 0.0
 
Date/Time
WST
Temp
°C
App
Temp
°C
Dew
Point
°C
Rel
Hum
%
Delta-T
°C
Wind Press
QNH
hPa
Press
MSL
hPa
Rain since
9am
mm
Dir  Spd
km/h
Gust
km/h
Spd
kts
Gust
kts
28/11:30pm 14.0 11.8 8.0 67 3.0 SW 9 15 5 8 1016.6 1016.6 0.0
28/11:00pm 13.9 11.4 8.1 68 2.9 S 11 17 6 9 1017.1 1017.1 0.0
28/10:30pm 14.1 11.5 7.9 66 3.1 S 11 13 6 7 1017.1 1017.1 0.0
28/10:00pm 13.8 11.4 7.1 64 3.3 S 9 13 5 7 1017.3 1017.3 0.0
28/09:30pm 14.1 11.5 7.6 65 3.2 SSW 11 17 6 9 1017.7 1017.7 0.0
28/09:00pm 14.0 10.9 7.3 64 3.3 SSW 13 17 7 9 1017.7 1017.7 0.0
28/08:30pm 14.4 11.4 7.7 64 3.3 SSW 13 20 7 11 1017.6 1017.6 0.0
28/08:00pm 14.3 10.8 7.1 62 3.5 SSW 15 20 8 11 1017.9 1017.9 0.0
28/07:30pm 14.5 11.4 7.1 61 3.6 S 13 19 7 10 1017.9 1017.9 0.0
28/07:00pm 15.1 11.3 7.6 61 3.7 SSW 17 24 9 13 1018.1 1018.1 0.0
28/06:30pm 16.0 13.0 7.7 58 4.2 SSW 13 19 7 10 1018.0 1018.0 0.0
28/06:00pm 16.6 12.9 8.1 57 4.3 SW 17 22 9 12 1018.0 1018.0 0.0
28/05:30pm 17.2 13.2 8.1 55 4.6 SW 19 24 10 13 1018.0 1018.0 0.0
28/05:00pm 17.9 13.6 7.9 52 5.1 SW 20 26 11 14 1018.1 1018.1 0.0
28/04:30pm 18.2 13.6 6.4 46 5.8 WSW 20 24 11 13 1018.2 1018.2 0.0
28/04:00pm 18.5 13.9 6.7 46 5.9 WSW 20 28 11 15 1018.6 1018.6 0.0
28/03:30pm 19.0 14.1 7.1 46 6.0 SW 22 28 12 15 1018.9 1018.9 0.0
28/03:00pm 18.8 13.5 8.5 51 5.3 WSW 26 32 14 17 1018.8 1018.8 0.0
28/02:30pm 19.3 14.3 6.4 43 6.4 SW 22 26 12 14 1019.1 1019.1 0.0
28/02:00pm 19.5 14.8 7.9 47 5.9 WSW 22 28 12 15 1019.1 1019.1 0.0
28/01:30pm 19.2 14.8 7.6 47 5.9 SW 20 26 11 14 1019.1 1019.1 0.0
28/01:00pm 19.7 15.4 7.8 46 6.1 SW 20 28 11 15 1019.2 1019.2 0.0
28/12:30pm 19.2 14.7 6.0 42 6.5 SW 19 26 10 14 1019.8 1019.8 0.0
28/12:00pm 20.1 16.4 6.1 40 7.0 SSW 15 20 8 11 1020.1 1020.1 0.0
28/11:30am 18.9 15.4 5.4 41 6.6 SSW 13 17 7 9 1020.1 1020.1 0.0
28/11:00am 19.1 15.6 5.6 41 6.6 SSW 13 20 7 11 1020.3 1020.3 0.0
28/10:30am 18.3 14.5 5.8 44 6.1 SW 15 19 8 10 1020.4 1020.4 0.0
28/10:00am 18.5 15.4 7.3 48 5.6 SW 13 20 7 11 1020.3 1020.3 0.0
28/09:30am 17.6 14.1 5.5 45 5.9 SW 13 17 7 9 1020.3 1020.3 0.0
28/09:00am 17.8 14.4 5.7 45 5.9 S 13 20 7 11 1020.1 1020.1 1.0
28/08:30am 17.9 14.7 6.7 48 5.6 S 13 20 7 11 1019.9 1019.9 1.0
28/08:00am 16.8 12.7 6.3 50 5.1 S 17 20 9 11 1020.0 1020.0 1.0
28/07:30am 15.8 11.3 6.0 52 4.7 SSW 19 24 10 13 1019.9 1019.9 1.0
28/07:00am 15.8 11.6 5.7 51 4.8 S 17 24 9 13 1019.8 1019.8 1.0
28/06:30am 15.4 10.9 5.9 53 4.6 S 19 28 10 15 1019.6 1019.6 1.0
28/06:00am 14.5 9.6 4.2 50 4.7 SSW 19 28 10 15 1019.2 1019.2 1.0
28/05:30am 14.1 8.5 5.5 56 4.1 SSW 24 33 13 18 1019.1 1019.1 1.0
28/05:00am 14.1 8.2 5.7 57 4.0 SSW 26 37 14 20 1019.1 1019.1 1.0
28/04:30am 14.0 8.0 5.1 55 4.2 SSW 26 35 14 19 1018.9 1018.9 1.0
28/04:00am 13.9 8.3 5.3 56 4.0 SSW 24 33 13 18 1018.8 1018.8 1.0
28/03:30am 14.0 8.5 5.9 58 3.8 S 24 32 13 17 1018.5 1018.5 1.0
28/03:00am 14.3 8.6 6.9 61 3.6 SSW 26 33 14 18 1018.5 1018.5 1.0
28/02:30am 14.4 8.6 6.3 58 3.9 SSW 26 33 14 18 1018.3 1018.3 1.0
28/02:00am 14.0 8.9 6.1 59 3.8 SSW 22 32 12 17 1018.1 1018.1 1.0
28/01:30am 14.3 9.0 6.6 60 3.7 SSW 24 35 13 19 1018.3 1018.3 1.0
28/01:00am 14.7 9.3 8.0 64 3.3 SSW 26 32 14 17 1018.5 1018.5 1.0
28/12:30am 14.2 9.1 7.5 64 3.3 SSW 24 30 13 16 1018.7 1018.7 1.0
28/12:00am 14.2 8.8 7.9 66 3.1 SSW 26 35 14 19 1018.8 1018.8 1.0
 
Date/Time
WST
Temp
°C
App
Temp
°C
Dew
Point
°C
Rel
Hum
%
Delta-T
°C
Wind Press
QNH
hPa
Press
MSL
hPa
Rain since
9am
mm
Dir  Spd
km/h
Gust
km/h
Spd
kts
Gust
kts
27/11:30pm 14.3 8.6 8.5 68 2.9 SSW 28 37 15 20 1018.9 1018.9 1.0
27/11:00pm 14.2 8.2 8.8 70 2.7 SSW 30 37 16 20 1018.9 1018.9 1.0
27/10:30pm 13.7 7.7 8.7 72 2.5 SSW 30 39 16 21 1019.0 1019.0 1.0
27/10:00pm 13.7 7.9 9.4 75 2.2 SSW 30 37 16 20 1018.9 1018.9 1.0
27/09:30pm 12.8 7.0 8.1 73 2.3 SSW 28 43 15 23 1018.9 1018.9 1.0
27/09:00pm 14.9 9.9 7.9 63 3.5 S 24 35 13 19 1018.4 1018.4 0.4
27/08:30pm 14.3 8.8 7.4 63 3.4 SSW 26 39 14 21 1018.0 1018.0 0.4
27/08:00pm 14.7 8.8 7.7 63 3.5 SW 28 35 15 19 1017.7 1017.7 0.4
27/07:30pm 14.7 8.6 6.5 58 4.0 SW 28 33 15 18 1017.4 1017.4 0.4
27/07:00pm 15.1 8.5 6.1 55 4.3 SW 30 35 16 19 1017.0 1017.0 0.4
27/06:30pm 15.7 9.5 8.0 60 3.9 SW 30 39 16 21 1016.8 1016.8 0.4
27/06:00pm 15.6 9.2 8.6 63 3.6 SW 32 39 17 21 1016.4 1016.4 0.4
27/05:30pm 15.5 9.1 9.4 67 3.1 SW 33 41 18 22 1016.3 1016.3 0.4
27/05:00pm 16.5 10.3 9.4 63 3.7 WSW 32 39 17 21 1016.1 1016.1 0.4
27/04:30pm 17.1 11.1 8.8 58 4.3 WSW 30 39 16 21 1015.9 1015.9 0.4
27/04:00pm 18.2 12.1 8.2 52 5.1 WSW 30 37 16 20 1015.9 1015.9 0.4
27/03:30pm 18.9 12.4 8.3 50 5.5 SW 32 39 17 21 1015.9 1015.9 0.4
27/03:00pm 18.2 12.3 9.0 55 4.8 WSW 30 39 16 21 1015.7 1015.7 0.4
27/02:30pm 18.2 12.2 8.7 54 4.9 SW 30 39 16 21 1015.7 1015.7 0.4
27/02:00pm 17.7 12.2 7.7 52 5.1 SW 26 32 14 17 1015.5 1015.5 0.4
27/01:30pm 18.8 14.0 10.4 58 4.5 SW 26 35 14 19 1015.7 1015.7 0.4
27/01:00pm 18.9 13.9 11.0 60 4.3 SW 28 35 15 19 1015.9 1015.9 0.2
27/12:30pm 19.5 14.9 12.3 63 4.0 SW 28 35 15 19 1015.9 1015.9 0.2
27/12:00pm 16.8 11.7 10.6 67 3.3 SW 28 35 15 19 1016.0 1016.0 0.2
27/11:30am 17.2 12.7 11.5 69 3.1 SW 26 32 14 17 1016.1 1016.1 0.2
27/11:00am 16.5 12.3 11.2 71 2.8 SW 24 30 13 16 1016.1 1016.1 0.2
27/10:30am 16.2 12.2 11.8 75 2.4 SW 24 30 13 16 1016.0 1016.0 0.2

Other formats

Comma delimited format used in spreadsheet applications
http://www.bom.gov.au/fwo/IDW60801/IDW60801.94601.axf

JavaScript Object Notation format (JSON) in row-major order
http://www.bom.gov.au/fwo/IDW60801/IDW60801.94601.json

Data quality

Most of these data are generated automatically and are frequently updated. Quality checks on data are not normally performed. It is possible for incorrect values to appear. Refer to information at About Latest Weather Observations and please check the disclaimer before using these data.